Terminal Aerodrome Forecast
Issued by NWS New Orleans/Baton Rouge, LA

Home | Current Version | Previous Version | Text Only | Print | Product List | Glossary On
Versions: 1 2 3 4 5 6 7 8 9 10 11 12 13 14 15 16 17 18 19 20 21 22 23 24 25 26 27 28 29 30 31 32
000
FTUS44 KLIX 240522
TAFNEW
TAF
KNEW 240522Z 2406/2506 20007KT P6SM VCSH SCT015 BKN025
      TEMPO 2409/2411 2SM TSRA OVC015CB
     FM241500 26005KT P6SM VCSH BKN025 BKN060
      TEMPO 2419/2422 2SM TSRA OVC020CB
     FM242300 19005KT P6SM BKN120=

USA.gov is the U.S. government's official web portal to all federal, state and local government web resources and services.